Time;durP1;ratioP1;P1;durP2;ratioP2;P2;SDS_P1;SDS_P2;PMS_P1;PMS_P2;Temp;Humidity;BMP_temperature;BMP_pressure;BME280_temperature;BME280_humidity;BME280_pressure;Samples;Min_cycle;Max_cycle;Signal;HPM_P1;HPM_P2
2022/10/17 00:01:32;;;;;;;6.53;3.65;;;;;;;21.76;48.96;101821.84;5009663;28;20041;-74
2022/10/17 00:03:57;;;;;;;6.80;3.70;;;;;;;21.74;49.25;101817.72;5015727;28;20025;-74
2022/10/17 00:06:23;;;;;;;6.40;3.90;;;;;;;21.76;49.06;101821.03;5014743;28;20052;-74
2022/10/17 00:08:48;;;;;;;8.20;3.85;;;;;;;21.69;49.14;101816.38;4996709;28;20080;-74
2022/10/17 00:11:19;;;;;;;8.75;4.38;;;;;;;21.69;49.43;101820.84;5007871;28;20100;-74
2022/10/17 00:13:46;;;;;;;7.88;3.38;;;;;;;21.66;49.25;101813.25;5015811;28;20597;-74
2022/10/17 00:16:13;;;;;;;6.82;4.15;;;;;;;21.64;49.42;101820.53;5014046;28;21462;-74
2022/10/17 00:18:38;;;;;;;6.93;3.70;;;;;;;21.60;49.14;101809.44;5016327;28;20036;-75
2022/10/17 00:21:04;;;;;;;5.95;3.78;;;;;;;21.55;49.48;101809.13;4994977;28;20953;-74
2022/10/17 00:23:29;;;;;;;5.25;3.60;;;;;;;21.60;49.14;101822.72;5011226;28;20025;-73
2022/10/17 00:26:03;;;;;;;6.82;3.78;;;;;;;21.55;49.21;101809.13;5014006;28;20044;-73
2022/10/17 00:28:29;;;;;;;6.38;3.95;;;;;;;21.53;49.57;101805.81;5013185;28;20045;-75
2022/10/17 00:30:59;;;;;;;5.30;3.65;;;;;;;21.53;49.49;101811.09;4989164;28;20041;-75
2022/10/17 00:33:26;;;;;;;;;;;;;;;21.51;49.57;101809.63;5014101;28;20045;-74
2022/10/17 00:36:04;;;;;;;7.97;3.58;;;;;;;21.47;49.66;101793.22;5010464;28;20458;-74
2022/10/17 00:38:30;;;;;;;6.47;3.47;;;;;;;21.46;49.59;101788.94;5013425;28;20065;-75
2022/10/17 00:40:55;;;;;;;4.53;3.15;;;;;;;21.48;49.49;101796.69;5011693;28;20129;-75
2022/10/17 00:43:21;;;;;;;7.70;3.40;;;;;;;21.42;49.57;101785.78;5009435;28;20033;-75
2022/10/17 00:45:46;;;;;;;6.40;3.40;;;;;;;21.45;49.61;101789.91;4983857;28;20041;-75
2022/10/17 00:48:14;;;;;;;4.45;3.13;;;;;;;21.38;49.73;101788.94;5012939;28;20136;-73
2022/10/17 00:50:43;;;;;;;4.85;2.90;;;;;;;21.43;49.79;101802.50;5011805;28;20040;-74
2022/10/17 00:53:09;;;;;;;4.50;3.08;;;;;;;21.39;49.80;101791.41;5004463;28;20073;-73
2022/10/17 00:55:44;;;;;;;5.10;3.00;;;;;;;21.40;49.63;101787.78;5003629;28;20030;-76
2022/10/17 00:58:10;;;;;;;5.32;2.97;;;;;;;21.42;49.54;101790.25;5013160;28;20042;-75
2022/10/17 01:00:36;;;;;;;4.90;2.88;;;;;;;21.40;49.54;101789.59;4998949;28;20112;-76
2022/10/17 01:03:03;;;;;;;5.07;3.30;;;;;;;21.39;49.79;101785.31;4999900;28;20034;-76
2022/10/17 01:05:28;;;;;;;5.18;2.97;;;;;;;21.35;49.82;101778.66;5017880;28;20092;-77
2022/10/17 01:07:54;;;;;;;3.90;2.97;;;;;;;21.35;49.70;101787.44;5014460;28;20041;-75
2022/10/17 01:10:21;;;;;;;6.35;3.30;;;;;;;21.34;49.69;101791.06;5016505;28;20123;-74
2022/10/17 01:13:12;;;;;;;5.68;3.30;;;;;;;21.34;49.70;101784.94;5016661;28;21560;-75
2022/10/17 01:15:49;;;;;;;4.75;2.95;;;;;;;21.36;49.76;101782.97;5015833;28;20039;-75
2022/10/17 01:18:17;;;;;;;5.13;3.42;;;;;;;21.37;49.60;101774.88;5012986;28;20451;-75
2022/10/17 01:21:20;;;;;;;6.13;3.33;;;;;;;21.31;49.83;101772.88;5001759;28;20052;-75
2022/10/17 01:24:12;;;;;;;5.03;2.97;;;;;;;21.32;49.92;101773.69;4996314;28;20071;-76
2022/10/17 01:26:57;;;;;;;5.28;3.20;;;;;;;21.27;49.87;101770.72;5011746;28;20124;-74
2022/10/17 01:30:11;;;;;;;5.05;3.28;;;;;;;21.32;49.69;101765.75;4995773;28;20033;-74
2022/10/17 01:32:43;;;;;;;4.35;3.15;;;;;;;21.27;49.81;101750.34;4989846;28;20064;-74
2022/10/17 01:35:25;;;;;;;7.38;2.95;;;;;;;21.30;49.73;101746.53;4996293;28;20765;-74
2022/10/17 01:38:08;;;;;;;4.82;2.85;;;;;;;21.29;49.87;101744.88;4996044;28;20115;-74
2022/10/17 01:40:50;;;;;;;4.57;2.80;;;;;;;21.31;49.73;101732.31;5008462;28;20601;-74
2022/10/17 01:43:23;;;;;;;5.47;2.97;;;;;;;21.28;49.75;101740.59;4997596;28;20030;-74
2022/10/17 01:45:59;;;;;;;3.75;2.88;;;;;;;21.28;49.98;101740.59;5013498;28;20081;-74
2022/10/17 01:48:33;;;;;;;3.95;2.78;;;;;;;21.25;49.67;101728.50;4995221;28;20120;-74
2022/10/17 01:51:07;;;;;;;4.13;2.80;;;;;;;21.29;49.97;101729.00;4993222;28;20058;-74
2022/10/17 01:53:36;;;;;;;4.53;2.97;;;;;;;21.22;50.24;101720.88;4995260;28;20047;-74
2022/10/17 01:56:06;;;;;;;4.22;2.90;;;;;;;21.25;50.08;101733.81;4982022;28;20033;-74
2022/10/17 01:58:41;;;;;;;4.93;2.92;;;;;;;21.26;49.80;101727.50;5010977;28;20064;-74
2022/10/17 02:01:35;;;;;;;4.53;2.75;;;;;;;21.24;49.69;101729.50;5012492;28;20025;-74
2022/10/17 02:04:02;;;;;;;4.50;3.25;;;;;;;21.27;49.58;101723.03;5012584;28;20034;-73
2022/10/17 02:06:28;;;;;;;5.20;3.03;;;;;;;21.23;49.92;101711.94;5013082;28;20064;-73
2022/10/17 02:08:54;;;;;;;5.22;2.83;;;;;;;21.24;49.91;101703.00;4984835;28;20399;-74
2022/10/17 02:11:22;;;;;;;3.95;2.80;;;;;;;21.25;49.70;101702.03;5001795;28;20037;-73
2022/10/17 02:14:08;;;;;;;4.80;2.83;;;;;;;21.22;49.76;101686.44;4996708;28;20048;-74
2022/10/17 02:17:03;;;;;;;6.68;3.22;;;;;;;21.23;49.95;101684.63;5002776;28;20057;-74
2022/10/17 02:20:04;;;;;;;4.53;2.80;;;;;;;21.25;49.66;101685.28;5001706;28;20697;-74
2022/10/17 02:22:39;;;;;;;5.95;2.53;;;;;;;21.23;50.16;101682.78;4985360;28;20056;-74
2022/10/17 02:25:25;;;;;;;5.32;2.70;;;;;;;21.25;49.95;101678.19;5015263;28;20046;-74
2022/10/17 02:28:11;;;;;;;4.60;2.85;;;;;;;21.25;49.96;101669.41;4985127;28;20037;-74
2022/10/17 02:30:44;;;;;;;4.53;2.88;;;;;;;21.25;49.74;101659.63;4996328;28;20100;-74
2022/10/17 02:33:16;;;;;;;3.72;2.72;;;;;;;21.24;49.86;101657.13;5009536;28;20489;-74
2022/10/17 02:35:46;;;;;;;3.40;2.75;;;;;;;21.19;49.72;101647.03;5009048;28;20064;-74
2022/10/17 02:38:13;;;;;;;4.85;2.60;;;;;;;21.22;50.08;101653.81;4996967;28;20748;-75
2022/10/17 02:40:43;;;;;;;4.95;2.60;;;;;;;21.21;50.04;101662.75;4994087;28;20041;-75
2022/10/17 02:43:09;;;;;;;3.53;2.78;;;;;;;21.23;49.90;101658.94;5006542;28;20041;-75
2022/10/17 02:45:36;;;;;;;4.45;2.95;;;;;;;21.18;50.05;101658.59;5010734;28;20575;-75
2022/10/17 02:48:36;;;;;;;3.92;2.47;;;;;;;21.21;49.75;101668.06;5011096;28;20038;-75
2022/10/17 02:51:11;;;;;;;5.60;2.80;;;;;;;21.18;49.68;101663.06;5010126;28;20144;-75
2022/10/17 02:53:51;;;;;;;3.90;2.53;;;;;;;21.19;49.77;101662.94;5010705;28;20120;-75
2022/10/17 02:56:20;;;;;;;4.07;2.88;;;;;;;21.19;49.69;101651.53;4995701;28;20036;-75
2022/10/17 02:58:50;;;;;;;4.72;2.58;;;;;;;21.17;49.72;101650.84;5008736;28;20048;-75
2022/10/17 03:01:16;;;;;;;3.55;2.60;;;;;;;21.18;50.00;101658.59;5009362;28;20033;-75
2022/10/17 03:03:42;;;;;;;3.58;2.83;;;;;;;21.19;49.71;101659.47;5014766;28;20045;-75
2022/10/17 03:06:07;;;;;;;3.95;2.60;;;;;;;21.14;49.96;101644.06;4993666;28;20049;-75
2022/10/17 03:08:33;;;;;;;4.78;2.80;;;;;;;21.18;49.78;101645.38;4991643;28;20046;-75
2022/10/17 03:10:59;;;;;;;4.35;2.55;;;;;;;21.18;49.90;101634.75;4994524;28;20045;-75
2022/10/17 03:13:27;;;;;;;2.85;2.25;;;;;;;21.16;49.74;101625.34;5011579;28;20467;-74
2022/10/17 03:15:55;;;;;;;4.45;2.78;;;;;;;21.15;49.82;101621.03;4992667;28;20041;-74
2022/10/17 03:18:21;;;;;;;3.20;2.42;;;;;;;21.14;49.70;101614.91;4988898;28;20057;-74
2022/10/17 03:20:50;;;;;;;3.63;2.60;;;;;;;21.17;49.89;101619.03;4993003;28;20095;-75
2022/10/17 03:23:15;;;;;;;3.88;2.38;;;;;;;21.16;49.82;101612.94;5008395;28;21661;-75
2022/10/17 03:25:41;;;;;;;3.65;2.63;;;;;;;21.13;49.90;101614.09;5012436;28;20511;-74
2022/10/17 03:28:06;;;;;;;2.50;2.25;;;;;;;21.16;49.76;101614.75;4996708;28;20056;-73
2022/10/17 03:30:32;;;;;;;5.03;2.65;;;;;;;21.14;49.77;101604.31;4996094;28;20080;-73
2022/10/17 03:32:58;;;;;;;4.32;2.50;;;;;;;21.12;49.77;101607.16;4991356;28;20063;-73
2022/10/17 03:35:24;;;;;;;4.80;2.42;;;;;;;21.14;50.04;101617.56;4993345;28;20037;-73
2022/10/17 03:37:51;;;;;;;3.13;2.50;;;;;;;21.17;50.07;101617.22;5009303;28;20081;-73
2022/10/17 03:40:18;;;;;;;5.15;2.80;;;;;;;21.17;49.60;101605.81;4976595;28;20050;-74
2022/10/17 03:42:44;;;;;;;4.60;2.30;;;;;;;21.17;49.92;101613.75;5007504;28;20033;-73
2022/10/17 03:45:09;;;;;;;2.78;2.30;;;;;;;21.15;49.68;101611.28;4992786;28;20087;-73
2022/10/17 03:47:35;;;;;;;2.67;2.40;;;;;;;21.17;49.92;101619.03;4992484;28;20104;-73
2022/10/17 03:50:01;;;;;;;2.80;2.50;;;;;;;21.11;49.84;101616.09;5010053;28;20096;-73
2022/10/17 03:52:30;;;;;;;3.38;2.67;;;;;;;21.11;49.83;101613.44;4996324;28;20038;-73
2022/10/17 03:54:57;;;;;;;2.80;2.50;;;;;;;21.12;49.91;101623.03;4978584;28;20041;-72
2022/10/17 03:57:22;;;;;;;4.60;2.70;;;;;;;21.12;49.93;101616.91;4994730;28;20115;-73
2022/10/17 03:59:51;;;;;;;3.70;2.38;;;;;;;21.11;50.04;101624.03;4991775;28;20038;-73
2022/10/17 04:02:18;;;;;;;2.22;2.03;;;;;;;21.14;49.99;101625.50;4997769;28;20132;-73
2022/10/17 04:04:44;;;;;;;3.10;2.53;;;;;;;21.12;49.83;101622.22;5000147;28;20049;-73
2022/10/17 04:07:10;;;;;;;2.97;2.30;;;;;;;21.13;49.91;101613.28;4983236;28;20514;-73
2022/10/17 04:09:39;;;;;;;3.60;2.33;;;;;;;21.10;49.66;101621.56;5001769;28;20038;-73
2022/10/17 04:12:09;;;;;;;3.30;2.30;;;;;;;21.12;49.68;101601.03;4999373;28;20048;-73
2022/10/17 04:14:37;;;;;;;3.65;2.28;;;;;;;21.09;49.97;101599.53;5016817;28;20047;-73
2022/10/17 04:17:03;;;;;;;2.90;2.53;;;;;;;21.09;49.86;101604.00;5008976;28;20026;-74
2022/10/17 04:19:29;;;;;;;4.72;2.70;;;;;;;21.08;49.69;101597.91;5001534;28;20076;-73
2022/10/17 04:21:55;;;;;;;2.92;2.20;;;;;;;21.10;49.61;101603.03;5000088;28;20049;-73
2022/10/17 04:24:21;;;;;;;3.88;2.28;;;;;;;21.13;49.73;101600.84;4994496;28;20037;-73
2022/10/17 04:27:05;;;;;;;4.10;2.30;;;;;;;21.08;50.01;101608.50;5001274;28;20038;-73
2022/10/17 04:29:34;;;;;;;4.05;2.30;;;;;;;21.10;49.96;101610.97;4992678;28;20042;-73
2022/10/17 04:32:14;;;;;;;4.95;2.80;;;;;;;21.06;50.06;101593.75;4998947;28;20107;-73
2022/10/17 04:34:55;;;;;;;4.43;2.45;;;;;;;21.07;49.73;101593.59;4997415;28;20475;-73
2022/10/17 04:37:22;;;;;;;5.90;2.50;;;;;;;21.06;50.04;101589.28;4984829;28;20146;-73
2022/10/17 04:39:49;;;;;;;2.85;2.53;;;;;;;21.04;50.03;101583.34;4998161;28;20026;-74
2022/10/17 04:42:15;;;;;;;3.95;2.40;;;;;;;21.05;50.05;101587.66;4996512;28;20415;-74
2022/10/17 04:44:41;;;;;;;2.83;2.45;;;;;;;21.10;49.92;101587.13;5014042;28;20052;-74
2022/10/17 04:47:07;;;;;;;2.92;2.38;;;;;;;21.08;49.82;101594.41;5011970;28;20542;-74
2022/10/17 04:49:32;;;;;;;3.78;2.63;;;;;;;21.10;49.88;101598.53;4999556;28;20048;-74
2022/10/17 04:52:06;;;;;;;3.70;2.70;;;;;;;21.07;50.11;101606.84;5011558;28;20049;-74
2022/10/17 04:54:38;;;;;;;3.92;2.70;;;;;;;21.07;50.08;101609.47;4993075;28;20137;-74
2022/10/17 04:57:07;;;;;;;2.85;2.45;;;;;;;21.08;49.86;101605.00;5001955;28;20041;-74
2022/10/17 04:59:33;;;;;;;3.17;2.70;;;;;;;21.07;49.89;101606.00;4997615;28;20037;-73
2022/10/17 05:02:21;;;;;;;2.97;2.55;;;;;;;21.08;50.05;101592.59;5011248;28;20046;-73
2022/10/17 05:04:46;;;;;;;2.60;2.30;;;;;;;21.07;49.83;101590.13;4998990;28;20367;-73
2022/10/17 05:07:13;;;;;;;2.95;2.65;;;;;;;21.03;49.99;101592.28;4997373;28;20823;-73
2022/10/17 05:09:59;;;;;;;3.72;2.40;;;;;;;21.03;49.81;101592.28;5011836;28;20048;-74
2022/10/17 05:12:25;;;;;;;3.45;2.60;;;;;;;21.04;50.14;101588.66;4981252;28;20052;-74
2022/10/17 05:14:52;;;;;;;3.05;2.40;;;;;;;21.08;49.82;101597.91;4998691;28;20041;-75
2022/10/17 05:17:18;;;;;;;2.33;2.05;;;;;;;21.08;49.94;101592.59;4995106;28;20046;-74
2022/10/17 05:19:43;;;;;;;3.35;2.60;;;;;;;21.07;49.87;101598.06;4999488;28;20048;-73
2022/10/17 05:22:09;;;;;;;2.70;2.30;;;;;;;21.07;49.87;101592.78;5013783;28;20064;-74
2022/10/17 05:24:34;;;;;;;2.97;2.35;;;;;;;21.07;49.82;101598.06;4997781;28;20038;-74
2022/10/17 05:27:00;;;;;;;3.60;2.50;;;;;;;21.08;50.16;101599.72;4997809;28;20519;-75
2022/10/17 05:29:25;;;;;;;3.20;2.28;;;;;;;21.03;50.04;101602.06;4983800;28;21139;-74
2022/10/17 05:31:59;;;;;;;3.05;2.17;;;;;;;21.04;49.91;101598.41;4983004;28;20171;-74
2022/10/17 05:34:27;;;;;;;7.55;3.00;;;;;;;21.04;49.78;101577.22;5013798;28;20037;-74
2022/10/17 05:36:53;;;;;;;2.92;2.20;;;;;;;20.96;49.92;101572.75;5013418;28;20053;-73
2022/10/17 05:39:22;;;;;;;3.70;2.60;;;;;;;21.05;49.84;101579.69;4979195;28;22073;-73
2022/10/17 05:41:51;;;;;;;7.50;2.70;;;;;;;21.04;49.88;101586.00;4996055;28;20637;-73
2022/10/17 05:44:17;;;;;;;3.10;2.65;;;;;;;21.04;49.85;101575.41;5008404;28;20120;-73
2022/10/17 05:46:50;;;;;;;3.15;2.70;;;;;;;21.05;50.29;101595.59;5012716;28;20064;-73
2022/10/17 05:49:16;;;;;;;3.33;2.58;;;;;;;20.98;49.90;101585.81;5013091;28;20124;-73
2022/10/17 05:51:42;;;;;;;2.67;2.47;;;;;;;21.03;50.12;101584.34;4997147;28;20033;-73
2022/10/17 05:54:07;;;;;;;2.63;2.28;;;;;;;20.93;50.05;101573.09;4996732;28;20049;-73
2022/10/17 05:56:34;;;;;;;3.20;2.67;;;;;;;21.04;50.15;101588.66;4991014;28;20044;-73
2022/10/17 05:59:01;;;;;;;3.10;2.38;;;;;;;21.03;50.14;101587.00;5015785;28;20041;-74
2022/10/17 06:01:46;;;;;;;3.63;2.30;;;;;;;20.95;49.83;101580.88;5014507;28;20443;-74
2022/10/17 06:04:11;;;;;;;3.95;2.40;;;;;;;20.99;50.01;101598.06;4995323;28;20407;-75
2022/10/17 06:06:39;;;;;;;3.13;2.83;;;;;;;21.02;49.97;101606.53;4996568;28;20762;-75
2022/10/17 06:09:05;;;;;;;2.85;2.30;;;;;;;21.00;49.98;101592.59;5008985;28;20503;-74
2022/10/17 06:11:34;;;;;;;2.92;2.58;;;;;;;21.01;49.99;101593.47;4982276;28;20120;-75
2022/10/17 06:14:00;;;;;;;3.42;2.67;;;;;;;21.02;50.09;101601.22;5012990;28;20086;-73
2022/10/17 06:16:27;;;;;;;2.95;2.55;;;;;;;21.05;49.99;101597.41;4994258;28;20905;-72
2022/10/17 06:18:53;;;;;;;2.60;2.40;;;;;;;21.05;49.89;101605.34;4995953;28;20073;-71
2022/10/17 06:21:22;;;;;;;4.75;2.70;;;;;;;21.02;50.15;101616.28;4993674;28;20037;-72
2022/10/17 06:23:50;;;;;;;3.22;2.65;;;;;;;21.00;50.09;101605.00;4994420;28;20025;-76
2022/10/17 06:26:23;;;;;;;2.63;2.42;;;;;;;21.03;50.08;101605.53;4997481;28;20061;-72
2022/10/17 06:28:49;;;;;;;3.55;2.80;;;;;;;21.04;50.21;101606.34;4993242;28;20092;-72
2022/10/17 06:31:16;;;;;;;4.18;2.63;;;;;;;21.00;50.31;101587.31;4995900;28;20033;-72
2022/10/17 06:33:42;;;;;;;3.95;2.83;;;;;;;21.01;50.15;101598.75;4992118;28;20033;-72
2022/10/17 06:36:12;;;;;;;3.38;2.60;;;;;;;21.06;50.36;101625.53;4997192;28;20411;-73
2022/10/17 06:38:38;;;;;;;2.92;2.47;;;;;;;21.04;50.12;101633.66;4994133;28;20045;-73
2022/10/17 06:41:13;;;;;;;;;;;;;;;21.06;50.44;101647.56;4998272;28;20502;-73
2022/10/17 06:43:42;;;;;;;3.17;2.40;;;;;;;21.02;50.26;101642.78;5008941;28;20446;-73
2022/10/17 06:46:28;;;;;;;5.22;3.00;;;;;;;21.02;50.44;101640.13;5014646;28;20052;-72
2022/10/17 06:49:03;;;;;;;4.20;3.05;;;;;;;20.98;50.25;101644.91;5001235;28;20048;-73
2022/10/17 06:51:41;;;;;;;4.07;2.90;;;;;;;21.04;50.06;101652.19;5015852;28;20083;-73
2022/10/17 06:54:10;;;;;;;4.85;2.85;;;;;;;21.05;50.11;101653.03;4998903;28;20053;-73
2022/10/17 06:56:55;;;;;;;4.13;2.78;;;;;;;21.03;50.45;101641.78;5012147;28;20052;-73
2022/10/17 06:59:39;;;;;;;4.35;3.00;;;;;;;21.00;50.11;101620.91;4982553;28;20060;-72
2022/10/17 07:02:13;;;;;;;5.82;2.80;;;;;;;21.04;50.41;101631.00;4997900;28;20604;-73
2022/10/17 07:04:38;;;;;;;3.25;2.70;;;;;;;21.04;50.45;101638.13;4993348;28;20040;-72
2022/10/17 07:07:04;;;;;;;4.82;3.03;;;;;;;21.02;50.36;101640.13;5013431;28;20042;-72
2022/10/17 07:09:32;;;;;;;3.55;3.05;;;;;;;21.04;50.34;101644.25;5014947;28;20399;-73
2022/10/17 07:11:58;;;;;;;3.17;2.80;;;;;;;21.03;50.24;101639.94;4994129;28;20669;-73
2022/10/17 07:14:30;;;;;;;4.97;3.17;;;;;;;21.02;50.13;101645.41;4994430;28;20052;-73
2022/10/17 07:16:59;;;;;;;3.50;2.97;;;;;;;21.03;50.22;101655.00;5012531;28;20166;-73
2022/10/17 07:19:27;;;;;;;3.42;2.80;;;;;;;21.06;50.26;101652.03;4995853;28;20149;-73
2022/10/17 07:21:53;;;;;;;4.35;3.13;;;;;;;21.06;50.13;101644.91;5012427;28;20041;-72
2022/10/17 07:24:18;;;;;;;4.88;3.50;;;;;;;21.03;50.42;101650.53;5010095;28;20041;-69
2022/10/17 07:26:48;;;;;;;;;;;;;;;21.04;50.86;101648.72;4990219;28;20052;-71
2022/10/17 07:29:14;;;;;;;7.63;4.43;;;;;;;21.05;51.06;101647.72;4992355;28;20310;-71
2022/10/17 07:32:05;;;;;;;7.07;4.97;;;;;;;21.05;51.35;101653.84;5000803;28;20045;-71
2022/10/17 07:34:32;;;;;;;6.88;4.57;;;;;;;21.05;51.31;101663.63;5015799;28;20158;-71
2022/10/17 07:36:58;;;;;;;7.18;4.80;;;;;;;21.02;51.62;101661.31;4997479;28;20065;-73
2022/10/17 07:39:23;;;;;;;7.53;4.10;;;;;;;21.02;51.58;101656.84;5012061;28;20706;-70
2022/10/17 07:41:49;;;;;;;6.00;4.25;;;;;;;21.04;51.75;101662.78;5013023;28;20523;-71
2022/10/17 07:44:16;;;;;;;7.15;3.25;;;;;;;21.15;51.27;101658.13;5017113;28;20133;-71
2022/10/17 07:46:45;;;;;;;4.95;4.10;;;;;;;21.41;50.49;101670.19;5016500;28;20053;-71
2022/10/17 07:49:11;;;;;;;7.68;3.88;;;;;;;21.45;50.29;101667.19;5002547;28;21543;-71
2022/10/17 07:51:38;;;;;;;6.22;4.13;;;;;;;21.51;50.12;101674.47;5000064;28;20040;-71
2022/10/17 07:54:05;;;;;;;6.38;4.22;;;;;;;21.53;49.84;101675.94;5014811;28;20041;-71
2022/10/17 07:56:31;;;;;;;6.57;4.22;;;;;;;21.54;49.91;101682.06;5019367;28;20035;-71
2022/10/17 07:58:56;;;;;;;5.95;4.00;;;;;;;21.55;49.60;101702.31;5016604;28;20037;-71
2022/10/17 08:01:22;;;;;;;8.73;4.00;;;;;;;21.57;49.72;101698.47;5016828;28;20037;-72
2022/10/17 08:03:47;;;;;;;4.10;3.38;;;;;;;21.61;49.39;101683.88;5015287;28;20030;-71
2022/10/17 08:06:14;;;;;;;7.18;4.10;;;;;;;21.60;49.41;101692.00;4998826;28;20503;-71
2022/10/17 08:08:40;;;;;;;6.00;3.85;;;;;;;21.61;49.83;101688.34;5019160;28;20148;-71
2022/10/17 08:11:08;;;;;;;5.95;4.30;;;;;;;21.60;49.73;101686.72;4994085;28;20124;-71
2022/10/17 08:13:35;;;;;;;9.02;4.70;;;;;;;21.68;49.68;101707.88;5016928;28;20577;-71
2022/10/17 08:16:02;;;;;;;5.82;3.88;;;;;;;21.49;50.31;101698.47;4996298;28;20146;-71
2022/10/17 08:18:28;;;;;;;5.47;4.22;;;;;;;21.49;50.11;101708.25;4997538;28;20063;-71
2022/10/17 08:20:54;;;;;;;6.30;4.20;;;;;;;21.52;50.35;101715.88;5016314;28;20085;-71
2022/10/17 08:23:19;;;;;;;6.68;3.88;;;;;;;21.57;50.38;101714.38;5012960;28;20407;-71
2022/10/17 08:25:45;;;;;;;4.93;4.22;;;;;;;21.57;50.20;101705.59;4994595;28;20041;-72
2022/10/17 08:28:10;;;;;;;8.27;4.63;;;;;;;21.51;50.57;101708.91;5010605;28;20056;-72
2022/10/17 08:30:36;;;;;;;8.73;4.25;;;;;;;21.53;50.90;101706.91;5022790;28;20029;-72
2022/10/17 08:33:01;;;;;;;6.75;4.32;;;;;;;21.49;50.43;101693.19;5006077;28;20052;-72
2022/10/17 08:35:27;;;;;;;8.23;4.15;;;;;;;21.53;50.53;101698.97;5018651;28;20083;-70
2022/10/17 08:37:52;;;;;;;6.72;3.63;;;;;;;21.51;50.59;101693.00;5013649;28;20838;-72
2022/10/17 08:40:24;;;;;;;6.45;4.10;;;;;;;21.52;50.74;101708.75;4999642;28;20919;-71
2022/10/17 08:42:58;;;;;;;6.63;4.20;;;;;;;21.55;50.52;101702.31;4999059;28;20075;-70
2022/10/17 08:45:45;;;;;;;4.40;3.75;;;;;;;21.50;50.34;101701.97;4989897;28;20076;-69
2022/10/17 08:48:18;;;;;;;5.50;4.60;;;;;;;21.51;50.67;101712.38;4997822;28;20033;-69
2022/10/17 08:51:00;;;;;;;6.35;4.22;;;;;;;21.45;50.51;101707.78;5002724;28;20495;-69
2022/10/17 08:53:38;;;;;;;8.77;4.20;;;;;;;21.48;50.47;101733.09;5003642;28;20033;-69
2022/10/17 08:56:22;;;;;;;6.30;3.83;;;;;;;21.54;50.28;101709.41;5022127;28;20519;-69
2022/10/17 08:58:47;;;;;;;5.28;3.63;;;;;;;21.49;50.32;101682.59;5018031;28;20041;-69
2022/10/17 09:01:33;;;;;;;5.10;3.85;;;;;;;21.51;50.22;101712.38;5021053;28;20550;-69
2022/10/17 09:04:05;;;;;;;5.72;3.95;;;;;;;21.50;50.36;101712.56;5019270;28;20568;-69
2022/10/17 09:06:36;;;;;;;7.10;3.90;;;;;;;21.51;49.93;101700.97;5018363;28;20037;-69
2022/10/17 09:09:20;;;;;;;4.75;3.53;;;;;;;21.56;50.04;101719.84;5018055;28;20034;-69
2022/10/17 09:11:51;;;;;;;6.55;4.05;;;;;;;21.47;50.34;101787.09;5018125;28;20029;-69
2022/10/17 09:14:33;;;;;;;4.90;3.53;;;;;;;21.52;49.92;101801.50;5015988;28;20075;-69
2022/10/17 09:17:04;;;;;;;6.25;3.63;;;;;;;21.55;49.99;101795.06;5019879;28;20033;-69
2022/10/17 09:19:37;;;;;;;4.82;3.70;;;;;;;21.48;50.08;101805.47;5017071;28;20507;-70
2022/10/17 09:22:27;;;;;;;5.65;3.63;;;;;;;21.54;49.93;101825.19;5018668;28;20033;-70
2022/10/17 09:24:59;;;;;;;6.47;4.05;;;;;;;21.51;49.99;101842.25;5019602;28;20120;-69
2022/10/17 09:27:34;;;;;;;4.68;3.70;;;;;;;21.55;49.96;101838.28;5018953;28;20041;-69
2022/10/17 09:30:15;;;;;;;5.70;3.60;;;;;;;21.59;49.71;101859.97;4988481;28;20041;-70
2022/10/17 09:32:41;;;;;;;6.80;3.40;;;;;;;21.48;49.93;101842.56;5019129;28;20087;-69
2022/10/17 09:35:14;;;;;;;5.95;4.38;;;;;;;21.58;50.09;101875.06;5015738;28;20347;-72
2022/10/17 09:37:40;;;;;;;5.15;3.67;;;;;;;21.57;50.11;101886.66;5015479;28;20049;-72
2022/10/17 09:40:12;;;;;;;6.45;3.85;;;;;;;21.50;50.17;101882.16;5020128;28;20138;-71
2022/10/17 09:42:38;;;;;;;4.18;3.53;;;;;;;21.58;50.05;101883.00;5010587;28;20042;-71
2022/10/17 09:45:29;;;;;;;5.90;4.00;;;;;;;21.54;50.12;101886.97;5009755;28;20045;-71
2022/10/17 09:48:07;;;;;;;5.13;3.97;;;;;;;21.56;50.13;101874.41;5021331;28;20515;-73
2022/10/17 09:50:34;;;;;;;4.90;4.05;;;;;;;21.55;50.02;101858.66;5017137;28;20048;-71
2022/10/17 09:53:08;;;;;;;5.25;3.85;;;;;;;21.54;50.00;101872.88;5016834;28;20435;-73
2022/10/17 09:55:41;;;;;;;4.57;3.20;;;;;;;21.54;49.90;101880.84;5011906;28;20579;-71
2022/10/17 09:58:08;;;;;;;7.82;3.95;;;;;;;21.55;49.90;101878.03;5019459;28;20529;-72
2022/10/17 10:00:37;;;;;;;5.80;4.00;;;;;;;21.55;50.28;101877.22;5015313;28;20511;-71
2022/10/17 10:03:11;;;;;;;4.60;3.90;;;;;;;21.55;49.90;101872.75;5017205;28;20049;-71
2022/10/17 10:05:38;;;;;;;5.68;4.07;;;;;;;21.55;50.38;101874.56;5015411;28;21992;-71
2022/10/17 10:12:32;;;;;;;7.80;4.40;;;;;;;21.59;50.34;101865.28;5001346;28;20071;-77
2022/10/17 10:14:58;;;;;;;5.40;4.20;;;;;;;21.61;50.49;101864.13;5017609;28;20045;-76
2022/10/17 10:17:37;;;;;;;8.45;4.30;;;;;;;21.62;50.70;101857.00;4997814;28;20506;-77
2022/10/17 10:20:25;;;;;;;6.22;4.05;;;;;;;21.57;50.57;101857.50;4992209;28;20033;-77
2022/10/17 10:23:20;;;;;;;5.30;4.05;;;;;;;21.58;50.81;101859.16;4989369;28;20037;-77
2022/10/17 10:25:58;;;;;;;6.18;3.70;;;;;;;21.63;50.86;101869.25;5016613;28;20037;-76
2022/10/17 10:28:32;;;;;;;6.03;3.95;;;;;;;21.59;50.80;101865.28;5014237;28;20914;-76
2022/10/17 10:31:03;;;;;;;8.65;4.20;;;;;;;21.60;50.95;101861.63;5015041;28;20047;-77
2022/10/17 10:33:30;;;;;;;5.53;4.40;;;;;;;21.55;50.74;101848.88;5012473;28;20123;-77
2022/10/17 10:36:00;;;;;;;6.43;4.43;;;;;;;21.54;51.06;101855.16;5014795;28;20037;-77
2022/10/17 10:38:26;;;;;;;4.35;3.63;;;;;;;21.56;51.00;101849.72;5013703;28;20053;-76
2022/10/17 10:41:01;;;;;;;6.15;4.45;;;;;;;21.59;50.79;101847.56;5000343;28;20577;-76
2022/10/17 10:43:44;;;;;;;5.32;3.90;;;;;;;21.63;50.69;101856.81;5016416;28;20608;-77
2022/10/17 10:46:26;;;;;;;4.82;4.03;;;;;;;21.59;50.63;101865.28;5015768;28;20049;-77
2022/10/17 10:48:52;;;;;;;6.88;4.50;;;;;;;21.64;50.53;101878.84;5013702;28;20578;-77
2022/10/17 10:51:24;;;;;;;5.78;3.90;;;;;;;21.62;50.69;101878.19;5012194;28;20081;-72
2022/10/17 10:53:53;;;;;;;9.13;4.75;;;;;;;21.63;50.85;101887.81;5012037;28;20041;-69
2022/10/17 10:56:37;;;;;;;7.22;3.90;;;;;;;21.59;50.80;101884.66;5008640;28;20414;-76
2022/10/17 10:59:03;;;;;;;7.63;4.40;;;;;;;21.60;50.87;101870.41;5008298;28;20060;-75
2022/10/17 11:01:47;;;;;;;7.30;4.32;;;;;;;21.64;50.85;101866.44;5013785;28;20037;-76
2022/10/17 11:04:22;;;;;;;6.70;4.28;;;;;;;21.61;50.73;101848.22;5012349;28;20029;-76
2022/10/17 11:06:51;;;;;;;7.00;4.65;;;;;;;21.67;50.75;101839.59;5018654;28;20064;-74
2022/10/17 11:09:36;;;;;;;8.85;4.63;;;;;;;21.65;50.80;101840.75;5017528;28;20040;-77
2022/10/17 11:12:23;;;;;;;7.40;4.85;;;;;;;21.66;50.76;101845.06;4999603;28;20116;-77
2022/10/17 11:14:59;;;;;;;6.60;4.90;;;;;;;21.60;50.87;101841.25;5016539;28;20152;-77
2022/10/17 11:17:31;;;;;;;7.90;4.90;;;;;;;21.63;50.64;101842.75;5015900;28;20060;-77
2022/10/17 11:20:26;;;;;;;5.38;4.45;;;;;;;21.64;50.70;101863.78;5015163;28;20079;-76
2022/10/17 11:22:57;;;;;;;5.82;4.53;;;;;;;21.60;50.42;101881.03;4985009;28;20049;-77
2022/10/17 11:25:41;;;;;;;5.72;4.60;;;;;;;21.65;50.42;101913.16;5000447;28;20080;-75
2022/10/17 11:28:14;;;;;;;5.10;4.32;;;;;;;21.61;50.65;101914.47;4985163;28;20491;-74
2022/10/17 11:31:04;;;;;;;4.93;4.18;;;;;;;21.68;50.48;101925.25;4996363;28;20029;-74
2022/10/17 11:33:39;;;;;;;5.53;4.90;;;;;;;21.66;50.58;101938.66;5004123;28;20045;-75
2022/10/17 11:36:07;;;;;;;7.07;4.40;;;;;;;21.60;50.79;101925.25;5013872;28;20052;-76
2022/10/17 11:38:51;;;;;;;6.88;4.20;;;;;;;21.66;50.42;101936.00;5017120;28;20053;-76
2022/10/17 11:41:44;;;;;;;6.18;4.20;;;;;;;21.65;50.59;101933.53;5014456;28;20061;-75
2022/10/17 11:44:34;;;;;;;7.43;5.07;;;;;;;21.66;50.65;101943.13;5003496;28;20111;-75
2022/10/17 11:47:06;;;;;;;6.97;4.78;;;;;;;21.70;50.58;101955.06;5013003;28;20025;-76
2022/10/17 11:49:37;;;;;;;6.15;4.43;;;;;;;21.63;50.64;101960.19;5011614;28;20139;-75
2022/10/17 11:52:25;;;;;;;6.43;4.72;;;;;;;21.60;50.59;101970.31;5009621;28;20065;-77